.
WxDataArchive / Data Records for 2011-03-27
2011-03-26 March 2011 2011-03-28

Data Records for Sunday, 27 March 2011

Time	Temp	Chill	HIndex	Humid	Dewpt	 Wind 	HiWind	WindDir	Rain 	Barom 
-----	----	-----	------	-----	-----	------	------	-------	-----	----- 
00:00	26.9	26.9	26.9	63	16.0	1	3	90	0.00	30.148 
00:05	26.9	26.9	26.9	64	16.4	1	4	90	0.00	30.148 
00:10	26.9	26.9	26.9	64	16.4	1	6	135	0.00	30.148 
00:15	27.0	27.0	27.0	63	16.1	2	7	112	0.00	30.143 
00:20	27.0	27.0	27.0	63	16.1	3	6	112	0.00	30.143 
00:25	27.0	22.3	27.0	62	15.7	4	11	112	0.00	30.143 
00:30	27.0	27.0	27.0	62	15.7	3	9	112	0.00	30.141 
00:35	27.0	27.0	27.0	63	16.1	2	5	112	0.00	30.141 
00:40	26.9	26.9	26.9	63	16.0	2	6	45	0.00	30.141 
00:45	26.9	26.9	26.9	63	16.0	2	7	22	0.00	30.141 
00:50	26.7	26.7	26.7	63	15.8	2	7	90	0.00	30.141 
00:55	26.6	26.6	26.6	64	16.1	2	7	112	0.00	30.141 
01:00	26.6	26.6	26.6	63	15.7	3	10	112	0.00	30.139 
01:05	26.4	26.4	26.4	63	15.5	3	11	112	0.00	30.139 
01:10	26.3	26.3	26.3	63	15.4	2	6	90	0.00	30.139 
01:15	26.1	26.1	26.1	64	15.6	1	4	112	0.00	30.139 
01:20	26.0	26.0	26.0	64	15.5	1	6	90	0.00	30.139 
01:25	25.8	25.8	25.8	65	15.7	1	4	90	0.00	30.139 
01:30	25.7	25.7	25.7	65	15.6	2	6	22	0.00	30.139 
01:35	25.6	25.6	25.6	66	15.8	1	5	112	0.00	30.139 
01:40	25.4	25.4	25.4	66	15.7	1	6	112	0.00	30.139 
01:45	25.4	25.4	25.4	67	16.0	1	7	90	0.00	30.141 
01:50	25.3	25.3	25.3	67	15.9	1	3	90	0.00	30.141 
01:55	25.1	25.1	25.1	67	15.7	1	6	45	0.00	30.141 
02:00	25.1	25.1	25.1	68	16.1	1	3	45	0.00	30.146 
02:05	25.0	25.0	25.0	68	16.0	1	3	22	0.00	30.146 
02:10	25.0	25.0	25.0	68	16.0	1	6	45	0.00	30.146 
02:15	24.8	24.8	24.8	68	15.8	1	4	112	0.00	30.140 
02:20	24.8	24.8	24.8	69	16.1	1	4	135	0.00	30.140 
02:25	24.7	24.7	24.7	69	16.0	2	4	135	0.00	30.140 
02:30	24.7	24.7	24.7	69	16.0	1	3	90	0.00	30.139 
02:35	24.5	24.5	24.5	69	15.8	2	5	112	0.00	30.139 
02:40	24.5	24.5	24.5	69	15.8	2	6	112	0.00	30.139 
02:45	24.4	24.4	24.4	69	15.7	2	7	90	0.00	30.140 
02:50	24.2	24.2	24.2	69	15.5	1	4	45	0.00	30.140 
02:55	24.2	24.2	24.2	70	15.9	2	7	112	0.00	30.140 
03:00	24.1	24.1	24.1	70	15.8	1	7	22	0.00	30.139 
03:05	23.9	23.9	23.9	70	15.6	1	3	45	0.00	30.139 
03:10	23.9	23.9	23.9	71	15.9	1	3	315	0.00	30.139 
03:15	23.8	23.8	23.8	71	15.8	1	3	315	0.00	30.140 
03:20	23.6	23.6	23.6	72	15.9	0	2	90	0.00	30.140 
03:25	23.5	23.5	23.5	72	15.8	0	2	90	0.00	30.140 
03:30	23.5	23.5	23.5	73	16.1	1	4	90	0.00	30.142 
03:35	23.3	23.3	23.3	71	15.3	2	6	112	0.00	30.142 
03:40	23.2	23.2	23.2	65	13.2	2	6	112	0.00	30.142 
03:45	23.2	23.2	23.2	62	12.1	1	9	45	0.00	30.145 
03:50	23.2	23.2	23.2	61	11.8	2	6	112	0.00	30.145 
03:55	23.2	23.2	23.2	61	11.8	1	9	90	0.00	30.145 
04:00	23.0	23.0	23.0	62	11.9	1	4	90	0.00	30.145 
04:05	23.0	23.0	23.0	62	11.9	0	3	22	0.00	30.145 
04:10	22.9	22.9	22.9	63	12.2	1	3	135	0.00	30.145 
04:15	22.7	22.7	22.7	63	12.0	0	2	68	0.00	30.146 
04:20	22.5	22.5	22.5	64	12.2	0	1	68	0.00	30.146 
04:25	22.4	22.4	22.4	64	12.1	0	1	68	0.00	30.146 
04:30	22.2	22.2	22.2	64	11.9	0	1	68	0.00	30.153 
04:35	22.1	22.1	22.1	64	11.8	0	3	68	0.00	30.153 
04:40	21.9	21.9	21.9	64	11.6	0	2	45	0.00	30.153 
04:45	21.9	21.9	21.9	63	11.3	1	3	45	0.00	30.148 
04:50	21.8	21.8	21.8	63	11.2	0	2	135	0.00	30.148 
04:55	21.8	21.8	21.8	62	10.8	0	3	45	0.00	30.148 
05:00	21.6	21.6	21.6	61	10.3	1	4	22	0.00	30.154 
05:05	21.6	21.6	21.6	60	9.9	1	4	45	0.00	30.154 
05:10	21.4	21.4	21.4	60	9.7	1	4	22	0.00	30.154 
05:15	21.4	21.4	21.4	58	8.9	0	2	22	0.00	30.159 
05:20	21.3	21.3	21.3	58	8.9	1	4	45	0.00	30.159 
05:25	21.3	21.3	21.3	57	8.5	1	4	45	0.00	30.159 
05:30	21.3	21.3	21.3	57	8.5	1	3	45	0.00	30.158 
05:35	21.1	21.1	21.1	58	8.7	1	4	68	0.00	30.158 
05:40	21.1	21.1	21.1	58	8.7	1	3	68	0.00	30.158 
05:45	21.0	21.0	21.0	60	9.3	1	3	45	0.00	30.159 
05:50	21.0	21.0	21.0	59	9.0	1	3	22	0.00	30.159 
05:55	20.8	20.8	20.8	59	8.8	1	4	68	0.00	30.159 
06:00	20.6	20.6	20.6	58	8.2	1	5	45	0.00	30.161 
06:05	20.6	20.6	20.6	58	8.2	1	3	112	0.00	30.161 
06:10	20.5	20.5	20.5	57	7.7	1	4	112	0.00	30.161 
06:15	20.5	20.5	20.5	57	7.7	1	3	112	0.00	30.172 
06:20	20.3	20.3	20.3	57	7.5	0	2	45	0.00	30.172 
06:25	20.3	20.3	20.3	58	7.9	0	2	45	0.00	30.172 
06:30	20.0	20.0	20.0	58	7.6	0	3	22	0.00	30.178 
06:35	20.0	20.0	20.0	57	7.2	1	4	45	0.00	30.178 
06:40	19.9	19.9	19.9	58	7.5	0	2	68	0.00	30.178 
06:45	19.9	19.9	19.9	58	7.5	1	4	22	0.00	30.183 
06:50	19.7	19.7	19.7	58	7.3	1	3	90	0.00	30.183 
06:55	19.7	19.7	19.7	57	7.0	0	3	68	0.00	30.183 
07:00	19.5	19.5	19.5	58	7.2	1	3	90	0.00	30.192 
07:05	19.5	19.5	19.5	58	7.2	1	3	338	0.00	30.192 
07:10	19.5	19.5	19.5	59	7.5	0	1	45	0.00	30.192 
07:15	19.4	19.4	19.4	60	7.8	1	3	135	0.00	30.204 
07:20	19.4	19.4	19.4	60	7.8	1	6	0	0.00	30.204 
07:25	19.4	19.4	19.4	61	8.2	0	2	45	0.00	30.204 
07:30	19.2	19.2	19.2	61	8.0	0	2	45	0.00	30.211 
07:35	19.1	19.1	19.1	62	8.3	0	1	45	0.00	30.211 
07:40	19.1	19.1	19.1	62	8.3	0	1	45	0.00	30.211 
07:45	18.9	18.9	18.9	62	8.1	0	2	45	0.00	30.216 
07:50	18.9	18.9	18.9	63	8.4	0	2	45	0.00	30.216 
07:55	18.9	18.9	18.9	64	8.8	1	3	112	0.00	30.216 
08:00	19.1	19.1	19.1	65	9.3	0	3	112	0.00	30.223 
08:05	19.2	19.2	19.2	65	9.4	1	3	112	0.00	30.223 
08:10	19.4	19.4	19.4	66	9.9	1	3	45	0.00	30.223 
08:15	19.7	19.7	19.7	66	10.2	1	2	45	0.00	30.228 
08:20	20.0	20.0	20.0	66	10.5	1	3	45	0.00	30.228 
08:25	20.3	20.3	20.3	66	10.8	1	3	68	0.00	30.228 
08:30	20.8	20.8	20.8	67	11.6	2	4	112	0.00	30.228 
08:35	21.1	21.1	21.1	68	12.2	1	6	112	0.00	30.228 
08:40	21.6	21.6	21.6	68	12.7	2	6	68	0.00	30.228 
08:45	21.9	21.9	21.9	68	13.0	2	7	112	0.00	30.230 
08:50	22.2	22.2	22.2	68	13.3	2	6	112	0.00	30.230 
08:55	22.4	22.4	22.4	68	13.5	1	6	22	0.00	30.230 
09:00	22.5	22.5	22.5	68	13.6	2	6	45	0.00	30.238 
09:05	22.7	22.7	22.7	69	14.1	1	6	45	0.00	30.238 
09:10	23.0	23.0	23.0	69	14.4	2	6	90	0.00	30.238 
09:15	23.2	23.2	23.2	69	14.6	3	10	90	0.00	30.237 
09:20	23.5	23.5	23.5	68	14.5	1	6	45	0.00	30.237 
09:25	23.6	23.6	23.6	67	14.3	3	9	90	0.00	30.237 
09:30	23.6	18.4	23.6	67	14.3	4	12	112	0.00	30.229 
09:35	23.8	18.6	23.8	68	14.8	4	11	90	0.00	30.229 
09:40	24.1	24.1	24.1	68	15.1	2	9	135	0.00	30.229 
09:45	24.2	24.2	24.2	66	14.5	3	9	112	0.00	30.236 
09:50	24.8	24.8	24.8	65	14.7	3	11	90	0.00	30.236 
09:55	25.3	25.3	25.3	65	15.2	3	11	112	0.00	30.236 
10:00	25.3	19.2	25.3	64	14.9	5	12	90	0.00	30.241 
10:05	25.4	20.5	25.4	64	14.9	4	12	90	0.00	30.241 
10:10	26.0	26.0	26.0	63	15.2	3	9	90	0.00	30.241 
10:15	26.3	21.5	26.3	61	14.7	4	12	90	0.00	30.243 
10:20	26.7	26.7	26.7	61	15.1	3	7	90	0.00	30.243 
10:25	27.0	27.0	27.0	60	15.0	3	9	90	0.00	30.243 
10:30	27.3	27.3	27.3	59	14.9	3	9	90	0.00	30.242 
10:35	27.5	22.9	27.5	60	15.5	4	9	90	0.00	30.242 
10:40	27.6	27.6	27.6	58	14.8	3	8	112	0.00	30.242 
10:45	27.5	22.9	27.5	58	14.7	4	11	90	0.00	30.241 
10:50	27.9	27.9	27.9	58	15.1	1	6	112	0.00	30.241 
10:55	28.1	28.1	28.1	58	15.3	3	11	90	0.00	30.241 
11:00	28.2	28.2	28.2	58	15.3	3	8	112	0.00	30.237 
11:05	28.5	28.5	28.5	56	14.8	2	7	68	0.00	30.237 
11:10	29.0	29.0	29.0	55	14.9	3	9	112	0.00	30.237 
11:15	29.0	24.6	29.0	56	15.3	4	14	112	0.00	30.235 
11:20	29.3	29.3	29.3	56	15.6	3	14	112	0.00	30.235 
11:25	29.7	29.7	29.7	56	15.9	3	6	112	0.00	30.235 
11:30	29.8	29.8	29.8	52	14.3	3	10	112	0.00	30.234 
11:35	30.1	30.1	30.1	54	15.5	2	9	22	0.00	30.234 
11:40	31.0	31.0	31.0	54	16.3	2	5	112	0.00	30.234 
11:45	31.5	31.5	31.5	49	14.6	2	8	90	0.00	30.229 
11:50	31.6	31.6	31.6	50	15.1	2	7	112	0.00	30.229 
11:55	31.0	26.9	31.0	47	13.2	4	11	112	0.00	30.229 
12:00	31.3	31.3	31.3	50	14.8	2	6	112	0.00	30.222 
12:05	31.8	31.8	31.8	46	13.4	3	9	112	0.00	30.222 
12:10	31.9	31.9	31.9	50	15.4	3	9	112	0.00	30.222 
12:15	32.2	32.2	32.2	45	13.3	3	9	90	0.00	30.219 
12:20	32.7	32.7	32.7	44	13.2	2	8	90	0.00	30.219 
12:25	32.7	28.9	32.7	43	12.7	4	12	112	0.00	30.219 
12:30	32.8	32.8	32.8	40	11.2	2	14	45	0.00	30.217 
12:35	32.9	32.9	32.9	39	10.7	2	9	112	0.00	30.217 
12:40	33.2	33.2	33.2	43	13.2	2	9	112	0.00	30.217 
12:45	33.5	33.5	33.5	43	13.4	1	9	45	0.00	30.216 
12:50	34.0	34.0	34.0	34	8.6	2	9	90	0.00	30.216 
12:55	34.0	34.0	34.0	39	11.7	2	5	90	0.00	30.216 
13:00	34.3	34.3	34.3	36	10.2	2	7	112	0.00	30.213 
13:05	34.7	34.7	34.7	36	10.5	1	5	112	0.00	30.213 
13:10	34.7	34.7	34.7	37	11.1	1	6	112	0.00	30.213 
13:15	35.2	35.2	35.2	37	11.6	1	4	90	0.00	30.216 
13:20	35.2	35.2	35.2	39	12.8	2	7	112	0.00	30.216 
13:25	35.3	35.3	35.3	39	12.8	2	7	112	0.00	30.216 
13:30	35.3	35.3	35.3	36	11.0	3	13	45	0.00	30.220 
13:35	35.5	35.5	35.5	36	11.2	2	6	90	0.00	30.220 
13:40	35.8	35.8	35.8	37	12.1	2	9	45	0.00	30.220 
13:45	35.9	35.9	35.9	37	12.2	1	2	338	0.00	30.218 
13:50	35.6	35.6	35.6	35	10.7	3	7	112	0.00	30.218 
13:55	35.6	35.6	35.6	33	9.4	2	4	68	0.00	30.218 
14:00	36.0	36.0	36.0	33	9.7	2	9	90	0.00	30.219 
14:05	36.2	36.2	36.2	31	8.5	3	8	112	0.00	30.219 
14:10	36.3	36.3	36.3	36	11.9	3	10	112	0.00	30.219 
14:15	36.9	36.9	36.9	34	11.2	1	5	90	0.00	30.214 
14:20	37.3	37.3	37.3	36	12.8	1	4	0	0.00	30.214 
14:25	37.3	37.3	37.3	35	12.2	1	4	22	0.00	30.214 
14:30	36.8	36.8	36.8	29	7.6	1	4	270	0.00	30.213 
14:35	36.9	36.9	36.9	33	10.5	2	6	112	0.00	30.213 
14:40	37.2	37.2	37.2	31	9.4	1	7	90	0.00	30.213 
14:45	37.5	37.5	37.5	31	9.6	2	6	90	0.00	30.204 
14:50	37.5	37.5	37.5	30	8.9	1	7	45	0.00	30.204 
14:55	37.6	37.6	37.6	28	7.5	2	6	22	0.00	30.204 
15:00	37.8	37.8	37.8	31	9.9	1	6	112	0.00	30.198 
15:05	37.6	37.6	37.6	33	11.1	2	7	0	0.00	30.198 
15:10	37.8	37.8	37.8	30	9.2	1	12	45	0.00	30.198 
15:15	37.8	37.8	37.8	30	9.2	1	4	315	0.00	30.188 
15:20	37.8	37.8	37.8	28	7.7	1	3	68	0.00	30.188 
15:25	37.8	37.8	37.8	31	9.9	2	6	90	0.00	30.188 
15:30	37.9	37.9	37.9	30	9.3	2	9	90	0.00	30.180 
15:35	37.9	37.9	37.9	29	8.5	2	10	90	0.00	30.180 
15:40	38.2	38.2	38.2	28	8.0	2	11	112	0.00	30.180 
15:45	37.8	34.8	37.8	31	9.9	4	10	112	0.00	30.177 
15:50	37.9	37.9	37.9	30	9.3	1	6	112	0.00	30.177 
15:55	37.8	37.8	37.8	32	10.6	2	7	112	0.00	30.177 
16:00	38.2	38.2	38.2	32	11.0	1	4	22	0.00	30.179 
16:05	38.5	38.5	38.5	28	8.3	1	4	68	0.00	30.179 
16:10	38.8	38.8	38.8	32	11.5	1	4	0	0.00	30.179 
16:15	39.1	39.1	39.1	28	8.8	1	4	270	0.00	30.176 
16:20	38.9	38.9	38.9	27	7.8	1	6	112	0.00	30.176 
16:25	38.9	38.9	38.9	27	7.8	1	3	90	0.00	30.176 
16:30	38.9	38.9	38.9	27	7.8	0	2	45	0.00	30.180 
16:35	38.6	38.6	38.6	28	8.3	0	2	45	0.00	30.180 
16:40	38.5	38.5	38.5	26	6.6	0	1	45	0.00	30.180 
16:45	38.5	38.5	38.5	30	9.8	1	4	68	0.00	30.175 
16:50	38.6	38.6	38.6	28	8.3	1	3	90	0.00	30.175 
16:55	38.3	38.3	38.3	26	6.5	1	8	112	0.00	30.175 
17:00	38.0	38.0	38.0	28	7.8	2	7	112	0.00	30.175 
17:05	37.9	37.9	37.9	28	7.7	0	2	22	0.00	30.175 
17:10	38.0	38.0	38.0	28	7.8	2	7	112	0.00	30.175 
17:15	38.2	38.2	38.2	28	8.0	2	4	90	0.00	30.174 
17:20	38.5	38.5	38.5	28	8.3	0	2	338	0.00	30.174 
17:25	38.6	38.6	38.6	28	8.3	1	6	22	0.00	30.174 
17:30	38.3	38.3	38.3	26	6.5	1	3	0	0.00	30.174 
17:35	38.5	38.5	38.5	27	7.5	2	9	68	0.00	30.174 
17:40	38.2	38.2	38.2	26	6.4	2	6	112	0.00	30.174 
17:45	38.0	38.0	38.0	27	7.0	3	7	112	0.00	30.178 
17:50	38.2	38.2	38.2	28	8.0	0	3	90	0.00	30.178 
17:55	38.3	38.3	38.3	26	6.5	0	1	90	0.00	30.178 
18:00	38.5	38.5	38.5	25	5.8	0	4	90	0.00	30.175 
18:05	38.3	38.3	38.3	25	5.6	1	5	90	0.00	30.175 
18:10	38.2	38.2	38.2	25	5.5	1	4	90	0.00	30.175 
18:15	38.2	38.2	38.2	27	7.2	1	4	90	0.00	30.176 
18:20	38.0	38.0	38.0	26	6.2	1	5	112	0.00	30.176 
18:25	37.9	37.9	37.9	27	6.9	1	5	112	0.00	30.176 
18:30	37.8	37.8	37.8	27	6.9	0	1	112	0.00	30.178 
18:35	37.6	37.6	37.6	27	6.7	2	6	112	0.00	30.178 
18:40	37.6	37.6	37.6	26	5.9	0	3	90	0.00	30.178 
18:45	37.8	37.8	37.8	27	6.9	0	3	90	0.00	30.180 
18:50	37.8	37.8	37.8	26	6.0	0	5	68	0.00	30.180 
18:55	37.6	37.6	37.6	25	5.0	0	1	90	0.00	30.180 
19:00	37.5	37.5	37.5	25	4.9	1	4	112	0.00	30.183 
19:05	37.3	37.3	37.3	25	4.7	0	2	315	0.00	30.183 
19:10	37.2	37.2	37.2	26	5.5	0	1	315	0.00	30.183 
19:15	36.9	36.9	36.9	27	6.1	0	1	315	0.00	30.186 
19:20	36.8	36.8	36.8	27	6.0	1	2	315	0.00	30.186 
19:25	36.6	36.6	36.6	26	5.0	0	2	315	0.00	30.186 
19:30	36.3	36.3	36.3	27	5.6	0	2	315	0.00	30.184 
19:35	36.2	36.2	36.2	26	4.7	0	1	315	0.00	30.184 
19:40	35.9	35.9	35.9	27	5.2	0	1	315	0.00	30.184 
19:45	35.6	35.6	35.6	27	5.0	0	1	315	0.00	30.182 
19:50	35.5	35.5	35.5	28	5.7	0	0	---	0.00	30.182 
19:55	35.2	35.2	35.2	27	4.6	0	2	315	0.00	30.182 
20:00	34.9	34.9	34.9	28	5.1	0	1	315	0.00	30.183 
20:05	34.6	34.6	34.6	29	5.6	0	1	315	0.00	30.183 
20:10	34.3	34.3	34.3	30	6.1	0	1	315	0.00	30.183 
20:15	34.0	34.0	34.0	30	5.9	0	1	315	0.00	30.177 
20:20	33.7	33.7	33.7	31	6.3	0	0	---	0.00	30.177 
20:25	33.4	33.4	33.4	31	6.1	0	0	---	0.00	30.177 
20:30	33.1	33.1	33.1	32	6.5	0	0	---	0.00	30.180 
20:35	32.7	32.7	32.7	32	6.1	0	0	---	0.00	30.180 
20:40	32.4	32.4	32.4	33	6.5	0	0	---	0.00	30.180 
20:45	31.9	31.9	31.9	34	6.8	0	0	---	0.00	30.182 
20:50	31.6	31.6	31.6	35	7.1	0	0	---	0.00	30.182 
20:55	31.3	31.3	31.3	35	6.9	0	0	---	0.00	30.182 
21:00	31.0	31.0	31.0	36	7.2	0	0	---	0.00	30.185 
21:05	30.7	30.7	30.7	36	6.9	0	0	---	0.00	30.185 
21:10	30.4	30.4	30.4	36	6.7	0	0	---	0.00	30.185 
21:15	30.1	30.1	30.1	37	7.0	0	0	---	0.00	30.190 
21:20	30.0	30.0	30.0	38	7.5	0	0	---	0.00	30.190 
21:25	29.7	29.7	29.7	38	7.2	0	0	---	0.00	30.190 
21:30	29.4	29.4	29.4	39	7.5	0	0	---	0.00	30.192 
21:35	29.3	29.3	29.3	39	7.4	0	0	---	0.00	30.192 
21:40	29.1	29.1	29.1	41	8.4	0	0	---	0.00	30.192 
21:45	29.0	29.0	29.0	41	8.3	0	0	---	0.00	30.192 
21:50	28.8	28.8	28.8	42	8.6	0	0	---	0.00	30.192 
21:55	28.8	28.8	28.8	43	9.2	0	0	---	0.00	30.192 
22:00	29.0	29.0	29.0	42	8.8	0	1	315	0.00	30.192 
22:05	29.1	29.1	29.1	41	8.4	0	1	135	0.00	30.192 
22:10	29.1	29.1	29.1	41	8.4	0	2	135	0.00	30.192 
22:15	29.3	29.3	29.3	41	8.6	0	1	135	0.00	30.194 
22:20	29.4	29.4	29.4	40	8.1	0	1	135	0.00	30.194 
22:25	29.4	29.4	29.4	40	8.1	0	1	135	0.00	30.194 
22:30	29.5	29.5	29.5	40	8.2	0	1	135	0.00	30.195 
22:35	29.5	29.5	29.5	40	8.2	0	1	135	0.00	30.195 
22:40	29.5	29.5	29.5	41	8.7	0	1	135	0.00	30.195 
22:45	29.5	29.5	29.5	41	8.7	0	1	135	0.00	30.194 
22:50	29.5	29.5	29.5	40	8.2	0	1	45	0.00	30.194 
22:55	29.5	29.5	29.5	41	8.7	0	2	45	0.00	30.194 
23:00	29.5	29.5	29.5	41	8.7	0	2	45	0.00	30.191 
23:05	29.5	29.5	29.5	40	8.2	0	1	45	0.00	30.191 
23:10	29.5	29.5	29.5	41	8.7	0	2	45	0.00	30.191 
23:15	29.5	29.5	29.5	40	8.2	1	3	22	0.00	30.190 
23:20	29.5	29.5	29.5	39	7.6	1	6	45	0.00	30.190 
23:25	29.7	29.7	29.7	38	7.2	1	5	112	0.00	30.190 
23:30	29.7	29.7	29.7	39	7.8	0	3	90	0.00	30.189 
23:35	29.5	29.5	29.5	38	7.1	1	5	112	0.00	30.189 
23:40	29.5	29.5	29.5	39	7.6	1	4	90	0.00	30.189 
23:45	29.4	29.4	29.4	39	7.5	1	5	90	0.00	30.190 
23:50	29.3	29.3	29.3	40	8.0	1	5	90	0.00	30.190 
23:55	29.1	29.1	29.1	41	8.4	1	5	45	0.00	30.190 

CoCoRaHS
IN-AL-39
A2 Web Hosting
Creative Commons License
GoDaddy
search engine by freefind advanced

loaded 2018-11-17 18:16:14 • last modified 2010-11-18 10:43:29
Privacy PolicyDisclaimer
• wx.awcolley.com is powered by PmWiki v.2002016 •
• all content (unless otherwise noted) © 2018 A W Colley